Time;durP1;ratioP1;P1;durP2;ratioP2;P2;SDS_P1;SDS_P2;PMS_P1;PMS_P2;Temp;Humidity;BMP_temperature;BMP_pressure;BME280_temperature;BME280_humidity;BME280_pressure;Samples;Min_cycle;Max_cycle;Signal;HPM_P1;HPM_P2
2023/11/08 00:01:37;;;;;;;1999.90;999.90;;;9.00;99.90;;;;;;5055209;28;20017;-70
2023/11/08 00:04:02;;;;;;;1999.90;999.90;;;9.10;99.90;;;;;;5051459;28;20032;-68
2023/11/08 00:06:28;;;;;;;1999.90;999.90;;;9.10;99.90;;;;;;5051567;28;20103;-68
2023/11/08 00:08:54;;;;;;;1999.90;999.90;;;9.10;99.90;;;;;;5056065;28;20025;-77
2023/11/08 00:11:23;;;;;;;1999.90;999.90;;;9.10;99.90;;;;;;5053759;28;20029;-68
2023/11/08 00:13:50;;;;;;;1999.90;999.90;;;9.00;99.90;;;;;;5053485;28;20021;-78
2023/11/08 00:16:17;;;;;;;1999.90;999.90;;;9.10;99.90;;;;;;5055117;28;20163;-68
2023/11/08 00:18:44;;;;;;;1999.90;999.90;;;9.00;99.90;;;;;;5055601;28;20358;-68
2023/11/08 00:21:10;;;;;;;1999.90;999.90;;;9.00;99.90;;;;;;5053559;28;20060;-69
2023/11/08 00:23:37;;;;;;;1999.90;999.90;;;9.00;99.90;;;;;;5053656;28;20044;-68
2023/11/08 00:26:03;;;;;;;1999.90;999.90;;;9.00;99.90;;;;;;5055443;28;20037;-69
2023/11/08 00:28:29;;;;;;;1999.90;999.90;;;9.00;99.90;;;;;;5050990;28;20030;-68
2023/11/08 00:30:55;;;;;;;1999.90;999.90;;;9.00;99.90;;;;;;5055252;28;20052;-68
2023/11/08 00:33:20;;;;;;;1999.90;999.90;;;9.00;99.90;;;;;;5053882;28;20017;-68
2023/11/08 00:35:46;;;;;;;1999.90;999.90;;;9.00;99.90;;;;;;5053914;28;20120;-68
2023/11/08 00:38:12;;;;;;;1999.90;999.90;;;9.00;99.90;;;;;;5047687;28;20029;-69
2023/11/08 00:40:38;;;;;;;1999.90;999.90;;;9.00;99.90;;;;;;5053952;28;20024;-68
2023/11/08 00:43:03;;;;;;;1999.90;999.90;;;9.00;99.90;;;;;;5054122;28;20033;-69
2023/11/08 00:45:29;;;;;;;1999.90;999.90;;;9.00;99.90;;;;;;5053147;28;20021;-68
2023/11/08 00:47:55;;;;;;;1999.90;999.90;;;9.00;99.90;;;;;;5045891;28;20030;-69
2023/11/08 00:50:21;;;;;;;1999.90;999.90;;;9.10;99.90;;;;;;5052554;28;20041;-68
2023/11/08 00:52:51;;;;;;;1999.90;999.90;;;9.10;99.90;;;;;;5054682;28;20529;-69
2023/11/08 00:55:17;;;;;;;1999.90;999.90;;;9.10;99.90;;;;;;5050191;28;20029;-68
2023/11/08 00:57:42;;;;;;;1999.90;999.90;;;9.00;99.90;;;;;;5044404;28;20399;-68
2023/11/08 01:00:09;;;;;;;1999.90;999.90;;;9.00;99.90;;;;;;5047505;28;20088;-68
2023/11/08 01:02:35;;;;;;;1999.90;999.90;;;9.00;99.90;;;;;;5048753;28;20647;-68
2023/11/08 01:05:00;;;;;;;1999.90;999.90;;;9.00;99.90;;;;;;5052526;28;20037;-68
2023/11/08 01:07:26;;;;;;;1999.90;999.90;;;9.00;99.90;;;;;;5050924;28;20032;-68
2023/11/08 01:09:52;;;;;;;1999.90;999.90;;;8.90;99.90;;;;;;5045373;28;20112;-68
2023/11/08 01:12:18;;;;;;;1999.90;999.90;;;9.00;99.90;;;;;;5051523;28;20057;-68
2023/11/08 01:14:44;;;;;;;1999.90;999.90;;;9.00;99.90;;;;;;5050611;28;20052;-67
2023/11/08 01:17:12;;;;;;;1999.90;999.90;;;9.00;99.90;;;;;;5054273;28;20424;-68
2023/11/08 01:19:38;;;;;;;1999.90;999.90;;;9.00;99.90;;;;;;5053186;28;20029;-68
2023/11/08 01:22:12;;;;;;;1999.90;999.90;;;9.00;99.90;;;;;;5053450;28;20036;-69
2023/11/08 01:24:41;;;;;;;1999.90;999.90;;;9.00;99.90;;;;;;5046713;28;20083;-68
2023/11/08 01:27:07;;;;;;;1999.90;999.90;;;9.00;99.90;;;;;;5052536;28;20029;-69
2023/11/08 01:29:32;;;;;;;1999.90;999.90;;;9.10;99.90;;;;;;5050099;28;20040;-68
2023/11/08 01:31:58;;;;;;;1999.90;999.90;;;9.10;99.90;;;;;;5048107;28;20025;-68
2023/11/08 01:34:24;;;;;;;1999.90;999.90;;;9.10;99.90;;;;;;5053586;28;20032;-69
2023/11/08 01:36:50;;;;;;;1999.90;999.90;;;9.10;99.90;;;;;;5051866;28;20404;-67
2023/11/08 01:39:17;;;;;;;1999.90;999.90;;;9.20;99.90;;;;;;5048655;28;20366;-68
2023/11/08 01:41:49;;;;;;;1999.90;999.90;;;9.20;99.90;;;;;;5050313;28;20106;-68
2023/11/08 01:44:19;;;;;;;1999.90;999.90;;;9.20;99.90;;;;;;5052296;28;20035;-68
2023/11/08 01:46:55;;;;;;;1999.90;999.90;;;9.30;99.90;;;;;;5051553;28;20029;-68
2023/11/08 01:49:25;;;;;;;1999.90;999.90;;;9.20;99.90;;;;;;5051644;28;20017;-69
2023/11/08 01:51:52;;;;;;;1999.90;999.90;;;9.20;99.90;;;;;;5048097;28;20044;-70
2023/11/08 01:54:19;;;;;;;1999.90;999.90;;;9.10;99.90;;;;;;5052397;28;20117;-69
2023/11/08 01:56:46;;;;;;;1999.90;999.90;;;9.10;99.90;;;;;;5053358;28;20124;-68
2023/11/08 01:59:15;;;;;;;1999.90;999.90;;;9.20;99.90;;;;;;5052839;28;20029;-68
2023/11/08 02:01:41;;;;;;;1999.90;999.90;;;9.20;99.90;;;;;;5043080;28;20064;-68
2023/11/08 02:04:07;;;;;;;1999.90;999.90;;;9.20;99.90;;;;;;5043833;28;20044;-68
2023/11/08 02:06:33;;;;;;;1999.90;999.90;;;9.20;99.90;;;;;;5042049;28;20037;-68
2023/11/08 02:09:03;;;;;;;1999.90;999.90;;;9.10;99.90;;;;;;5053653;28;20090;-67
2023/11/08 02:11:29;;;;;;;1999.90;999.90;;;9.10;99.90;;;;;;5050586;28;20036;-68
2023/11/08 02:13:56;;;;;;;1999.90;999.90;;;9.10;99.90;;;;;;5052542;28;20032;-82
2023/11/08 02:16:22;;;;;;;1999.90;999.90;;;9.10;99.90;;;;;;5052149;28;20021;-67
2023/11/08 02:18:49;;;;;;;1999.90;999.90;;;9.00;99.90;;;;;;5050516;28;20039;-77
2023/11/08 02:21:15;;;;;;;1999.90;999.90;;;9.00;99.90;;;;;;5053328;28;20423;-67
2023/11/08 02:23:41;;;;;;;1999.90;999.90;;;9.00;99.90;;;;;;5049948;28;20052;-68
2023/11/08 02:26:07;;;;;;;1999.90;999.90;;;9.10;99.90;;;;;;5052506;28;20076;-67
2023/11/08 02:28:33;;;;;;;1999.90;999.90;;;9.00;99.90;;;;;;5048628;28;20055;-67
2023/11/08 02:31:00;;;;;;;;;;;9.00;99.90;;;;;;5045847;28;20082;-68
2023/11/08 02:33:27;;;;;;;1999.90;999.90;;;9.00;99.90;;;;;;5043354;28;19955;-67
2023/11/08 02:35:53;;;;;;;1999.90;999.90;;;9.00;99.90;;;;;;5034445;28;20038;-68
2023/11/08 02:38:19;;;;;;;1999.90;999.90;;;9.00;99.90;;;;;;5048366;28;20029;-68
2023/11/08 02:40:45;;;;;;;1999.90;999.90;;;9.10;99.90;;;;;;5050761;28;20078;-67
2023/11/08 02:43:12;;;;;;;1999.90;999.90;;;9.10;99.90;;;;;;5046067;28;20029;-68
2023/11/08 02:45:39;;;;;;;1999.90;999.90;;;9.10;99.90;;;;;;5049746;28;20075;-68
2023/11/08 02:48:08;;;;;;;1999.90;999.90;;;9.10;99.90;;;;;;5048653;28;20025;-69
2023/11/08 02:50:37;;;;;;;1999.90;999.90;;;9.10;99.90;;;;;;5045209;28;20048;-68
2023/11/08 02:53:04;;;;;;;1999.90;999.90;;;9.10;99.90;;;;;;5045353;28;20018;-67
2023/11/08 02:55:31;;;;;;;1999.90;999.90;;;9.10;99.90;;;;;;5043011;28;20034;-68
2023/11/08 02:57:57;;;;;;;1999.90;999.90;;;9.10;99.90;;;;;;5051122;28;20033;-68
2023/11/08 03:00:23;;;;;;;1999.90;999.90;;;9.10;99.90;;;;;;5054163;28;20041;-69
2023/11/08 03:02:51;;;;;;;1999.90;999.90;;;9.00;99.90;;;;;;5055916;28;20033;-68
2023/11/08 03:05:21;;;;;;;1999.90;999.90;;;8.90;99.90;;;;;;5055115;28;20159;-68
2023/11/08 03:07:54;;;;;;;1999.90;999.90;;;8.90;99.90;;;;;;5055735;28;20044;-68
2023/11/08 03:10:21;;;;;;;1999.90;999.90;;;8.90;99.90;;;;;;5048580;28;20431;-68
2023/11/08 03:12:51;;;;;;;1999.90;999.90;;;8.80;99.90;;;;;;5056807;28;20427;-68
2023/11/08 03:15:17;;;;;;;1999.90;999.90;;;8.80;99.90;;;;;;5056639;28;20122;-68
2023/11/08 03:17:44;;;;;;;1999.90;999.90;;;8.80;99.90;;;;;;5056766;28;20029;-68
2023/11/08 03:20:13;;;;;;;1999.90;999.90;;;8.80;99.90;;;;;;5056724;28;20041;-68
2023/11/08 03:22:39;;;;;;;1999.90;999.90;;;8.80;99.90;;;;;;5054701;28;20029;-69
2023/11/08 03:25:13;;;;;;;1999.90;999.90;;;8.80;99.90;;;;;;5051933;28;20041;-69
2023/11/08 03:27:41;;;;;;;1999.90;999.90;;;8.80;99.90;;;;;;5052536;28;20230;-68
2023/11/08 03:30:12;;;;;;;1999.90;999.90;;;8.70;99.90;;;;;;5045288;28;20033;-68
2023/11/08 03:32:39;;;;;;;1999.90;999.90;;;8.70;99.90;;;;;;5047261;28;20037;-68
2023/11/08 03:35:05;;;;;;;1999.90;999.90;;;8.70;99.90;;;;;;5045318;28;20037;-76
2023/11/08 03:37:39;;;;;;;1999.90;999.90;;;8.70;99.90;;;;;;5049103;28;20052;-76
2023/11/08 03:40:11;;;;;;;1999.90;999.90;;;8.70;99.90;;;;;;5046866;28;20025;-68
2023/11/08 03:42:46;;;;;;;1999.90;999.90;;;8.70;99.90;;;;;;5050359;28;20037;-67
2023/11/08 03:45:12;;;;;;;1999.90;999.90;;;8.70;99.90;;;;;;5042493;28;20033;-68
2023/11/08 03:47:39;;;;;;;1999.90;999.90;;;8.70;99.90;;;;;;5046084;28;20079;-67
2023/11/08 03:50:05;;;;;;;1999.90;999.90;;;8.70;99.90;;;;;;5047653;28;20033;-68
2023/11/08 03:52:31;;;;;;;1999.90;999.90;;;8.70;99.90;;;;;;5045411;28;20033;-68
2023/11/08 03:54:57;;;;;;;1999.90;999.90;;;8.70;99.90;;;;;;5049474;28;20112;-69
2023/11/08 03:57:24;;;;;;;1999.90;999.90;;;8.70;99.90;;;;;;5044650;28;20108;-67
2023/11/08 03:59:49;;;;;;;1999.90;999.90;;;8.70;99.90;;;;;;5043679;28;20431;-68
2023/11/08 04:02:17;;;;;;;1999.90;999.90;;;8.70;99.90;;;;;;5045424;28;20053;-69
2023/11/08 04:04:45;;;;;;;1999.90;999.90;;;8.70;99.90;;;;;;5048336;28;20113;-67
2023/11/08 04:07:10;;;;;;;1999.90;999.90;;;8.70;99.90;;;;;;5044420;28;20029;-68
2023/11/08 04:09:36;;;;;;;1999.90;999.90;;;8.60;99.90;;;;;;5049966;28;20029;-68
2023/11/08 04:12:02;;;;;;;1999.90;999.90;;;8.60;99.90;;;;;;5048782;28;20033;-68
2023/11/08 04:14:28;;;;;;;1999.90;999.90;;;8.60;99.90;;;;;;5049659;28;20029;-68
2023/11/08 04:16:54;;;;;;;1999.90;999.90;;;8.50;99.90;;;;;;5048068;28;20025;-68
2023/11/08 04:19:20;;;;;;;1999.90;999.90;;;8.50;99.90;;;;;;5052086;28;20028;-67
2023/11/08 04:21:45;;;;;;;1999.90;999.90;;;8.50;99.90;;;;;;5047245;28;20048;-68
2023/11/08 04:24:11;;;;;;;1999.90;999.90;;;8.60;99.90;;;;;;5045481;28;20021;-68
2023/11/08 04:26:37;;;;;;;1999.90;999.90;;;8.50;99.90;;;;;;5044986;28;20041;-68
2023/11/08 04:29:03;;;;;;;1999.90;999.90;;;8.60;99.90;;;;;;5048607;28;20970;-68
2023/11/08 04:31:29;;;;;;;1999.90;999.90;;;8.50;99.90;;;;;;5053707;28;20032;-68
2023/11/08 04:33:55;;;;;;;1999.90;999.90;;;8.50;99.90;;;;;;5052246;28;20049;-69
2023/11/08 04:36:21;;;;;;;1999.90;999.90;;;8.40;99.90;;;;;;5053294;28;20017;-68
2023/11/08 04:38:47;;;;;;;1999.90;999.90;;;8.40;99.90;;;;;;5052994;28;20100;-68
2023/11/08 04:41:14;;;;;;;1999.90;999.90;;;8.40;99.90;;;;;;5054768;28;20120;-68
2023/11/08 04:43:43;;;;;;;1999.90;999.90;;;8.40;99.90;;;;;;5053536;28;20105;-68
2023/11/08 04:46:11;;;;;;;1999.90;999.90;;;8.50;99.90;;;;;;5054063;28;20040;-68
2023/11/08 04:48:37;;;;;;;1999.90;999.90;;;8.50;99.90;;;;;;5048820;28;20436;-68
2023/11/08 04:51:04;;;;;;;1999.90;999.90;;;8.50;99.90;;;;;;5054933;28;20132;-68
2023/11/08 04:53:30;;;;;;;1999.90;999.90;;;8.50;99.90;;;;;;5054549;28;20025;-68
2023/11/08 04:55:55;;;;;;;1999.90;999.90;;;8.50;99.90;;;;;;5049121;28;20139;-69
2023/11/08 04:58:21;;;;;;;1999.90;999.90;;;8.50;99.90;;;;;;5053250;28;20036;-68
2023/11/08 05:00:46;;;;;;;1999.90;999.90;;;8.50;99.90;;;;;;5050923;28;20045;-68
2023/11/08 05:03:12;;;;;;;1999.90;999.90;;;8.50;99.90;;;;;;5054345;28;20033;-69
2023/11/08 05:05:38;;;;;;;1999.90;999.90;;;8.50;99.90;;;;;;5050735;28;20028;-68
2023/11/08 05:08:07;;;;;;;1999.90;999.90;;;8.50;99.90;;;;;;5052207;28;20049;-68
2023/11/08 05:10:33;;;;;;;1999.90;999.90;;;8.50;99.90;;;;;;5039185;28;20121;-69
2023/11/08 05:13:02;;;;;;;1999.90;999.90;;;8.50;99.90;;;;;;5054650;28;20061;-68
2023/11/08 05:15:29;;;;;;;1999.90;999.90;;;8.50;99.90;;;;;;5049644;28;20029;-68
2023/11/08 05:17:55;;;;;;;1999.90;999.90;;;8.50;99.90;;;;;;5052642;28;20107;-68
2023/11/08 05:20:22;;;;;;;1999.90;999.90;;;8.50;99.90;;;;;;5049562;28;20028;-67
2023/11/08 05:22:49;;;;;;;1999.90;999.90;;;8.60;99.90;;;;;;5049140;28;20404;-68
2023/11/08 05:25:14;;;;;;;;;;;8.60;99.90;;;;;;5054415;28;20029;-68
2023/11/08 05:27:40;;;;;;;1999.90;999.90;;;8.50;99.90;;;;;;5049319;28;19919;-68
2023/11/08 05:30:09;;;;;;;1999.90;999.90;;;8.50;99.90;;;;;;5052848;28;20334;-79
2023/11/08 05:32:39;;;;;;;1999.90;999.90;;;8.50;99.90;;;;;;5034945;28;20363;-68
2023/11/08 05:35:06;;;;;;;1999.90;999.90;;;8.50;99.90;;;;;;5053013;28;20373;-68
2023/11/08 05:37:32;;;;;;;1999.90;999.90;;;8.60;99.90;;;;;;5054301;28;20020;-68
2023/11/08 05:39:58;;;;;;;1999.90;999.90;;;8.50;99.90;;;;;;5051601;28;20312;-70
2023/11/08 05:42:23;;;;;;;1999.90;999.90;;;8.50;99.90;;;;;;5043829;28;20029;-68
2023/11/08 05:44:58;;;;;;;1999.90;999.90;;;8.50;99.90;;;;;;5053037;28;20331;-69
2023/11/08 05:47:24;;;;;;;1999.90;999.90;;;8.40;99.90;;;;;;5047405;28;20060;-68
2023/11/08 05:49:50;;;;;;;1999.90;999.90;;;8.40;99.90;;;;;;5047290;28;20048;-69
2023/11/08 05:52:19;;;;;;;1999.90;999.90;;;8.40;99.90;;;;;;5053975;28;20045;-69
2023/11/08 05:54:44;;;;;;;1999.90;999.90;;;8.50;99.90;;;;;;5053083;28;20446;-69
2023/11/08 05:57:10;;;;;;;1999.90;999.90;;;8.50;99.90;;;;;;5053987;28;20029;-68
2023/11/08 05:59:36;;;;;;;1999.90;999.90;;;8.50;99.90;;;;;;5051450;28;20033;-69
2023/11/08 06:02:02;;;;;;;1999.90;999.90;;;8.50;99.90;;;;;;5046386;28;20032;-68
2023/11/08 06:04:28;;;;;;;1999.90;999.90;;;8.60;99.90;;;;;;5045767;28;20094;-68
2023/11/08 06:06:54;;;;;;;1999.90;999.90;;;8.60;99.90;;;;;;5045560;28;20026;-68
2023/11/08 06:09:20;;;;;;;1999.90;999.90;;;8.60;99.90;;;;;;5041079;28;20036;-68
2023/11/08 06:11:46;;;;;;;1999.90;999.90;;;8.70;99.90;;;;;;5050327;28;20055;-68
2023/11/08 06:14:12;;;;;;;1999.90;999.90;;;8.70;99.90;;;;;;5049888;28;20074;-67
2023/11/08 06:16:40;;;;;;;1999.90;999.90;;;8.60;99.90;;;;;;5048039;28;20032;-68
2023/11/08 06:19:06;;;;;;;1999.90;999.90;;;8.60;99.90;;;;;;5048939;28;20420;-68
2023/11/08 06:21:32;;;;;;;1999.90;999.90;;;8.70;99.90;;;;;;5042570;28;20025;-68
2023/11/08 06:23:59;;;;;;;1999.90;999.90;;;8.60;99.90;;;;;;5043763;28;20102;-68
2023/11/08 06:26:25;;;;;;;1999.90;999.90;;;8.60;99.90;;;;;;5048825;28;20062;-68
2023/11/08 06:28:52;;;;;;;1999.90;999.90;;;8.60;99.90;;;;;;5050176;28;20037;-78
2023/11/08 06:31:20;;;;;;;1999.90;999.90;;;8.60;99.90;;;;;;5045519;28;20033;-68
2023/11/08 06:33:47;;;;;;;1999.90;999.90;;;8.60;99.90;;;;;;5052095;28;20013;-68
2023/11/08 06:36:14;;;;;;;1999.90;999.90;;;8.60;99.90;;;;;;5045851;28;20424;-68
2023/11/08 06:38:40;;;;;;;1999.90;999.90;;;8.50;99.90;;;;;;5046319;28;20033;-68
2023/11/08 06:41:05;;;;;;;1999.90;999.90;;;8.50;99.90;;;;;;5044341;28;20024;-68
2023/11/08 06:43:31;;;;;;;1999.90;999.90;;;8.50;99.90;;;;;;5043591;28;20090;-69
2023/11/08 06:45:57;;;;;;;1999.90;999.90;;;8.50;99.90;;;;;;5047198;28;20041;-72
2023/11/08 06:48:25;;;;;;;1999.90;999.90;;;8.40;99.90;;;;;;5051371;28;20044;-68
2023/11/08 06:50:51;;;;;;;1999.90;999.90;;;8.50;99.90;;;;;;5049215;28;20383;-68
2023/11/08 06:53:20;;;;;;;1999.90;999.90;;;8.50;99.90;;;;;;5049268;28;20117;-68
2023/11/08 06:55:46;;;;;;;1999.90;999.90;;;8.50;99.90;;;;;;5043346;28;20029;-68
2023/11/08 06:58:13;;;;;;;1999.90;999.90;;;8.50;99.90;;;;;;5041883;28;20021;-68
2023/11/08 07:00:39;;;;;;;1999.90;999.90;;;8.50;99.90;;;;;;5051457;28;20041;-68
2023/11/08 07:03:05;;;;;;;1999.90;999.90;;;8.50;99.90;;;;;;5046343;28;20039;-68
2023/11/08 07:05:32;;;;;;;1999.90;999.90;;;8.50;99.90;;;;;;5049724;28;20048;-68
2023/11/08 07:07:58;;;;;;;1999.90;999.90;;;8.50;99.90;;;;;;5044901;28;20029;-69
2023/11/08 07:10:24;;;;;;;1999.90;999.90;;;8.40;99.90;;;;;;5043186;28;20063;-68
2023/11/08 07:12:52;;;;;;;1999.90;999.90;;;8.40;99.90;;;;;;5044615;28;20025;-68
2023/11/08 07:15:19;;;;;;;1999.90;999.90;;;8.50;99.90;;;;;;5041830;28;20025;-69
2023/11/08 07:17:45;;;;;;;;;;;8.50;99.90;;;;;;5042178;28;20103;-68
2023/11/08 07:20:11;;;;;;;1999.90;999.90;;;8.50;99.90;;;;;;5050489;28;19991;-67
2023/11/08 07:22:37;;;;;;;1999.90;999.90;;;8.40;99.90;;;;;;5048294;28;20032;-70
2023/11/08 07:25:04;;;;;;;1999.90;999.90;;;8.40;99.90;;;;;;5038900;28;20029;-68
2023/11/08 07:27:30;;;;;;;1999.90;999.90;;;8.40;99.90;;;;;;5040534;28;20033;-67
2023/11/08 07:29:56;;;;;;;1999.90;999.90;;;8.50;99.90;;;;;;5053286;28;20449;-68
2023/11/08 07:32:29;;;;;;;1999.90;999.90;;;8.50;99.90;;;;;;5045071;28;20021;-68
2023/11/08 07:34:56;;;;;;;1999.90;999.90;;;8.40;99.90;;;;;;5043586;28;20269;-75
2023/11/08 07:37:21;;;;;;;1999.90;999.90;;;8.50;99.90;;;;;;5041156;28;20021;-67
2023/11/08 07:39:47;;;;;;;1999.90;999.90;;;8.50;99.90;;;;;;5050507;28;20037;-66
2023/11/08 07:42:13;;;;;;;1999.90;999.90;;;8.50;99.90;;;;;;5039323;28;20095;-67
2023/11/08 07:44:39;;;;;;;1999.90;999.90;;;8.60;99.90;;;;;;5045411;28;20025;-67
2023/11/08 07:47:05;;;;;;;1999.90;999.90;;;8.60;99.90;;;;;;5043220;28;20021;-68
2023/11/08 07:49:31;;;;;;;1999.90;999.90;;;8.60;99.90;;;;;;5042467;28;20278;-68
2023/11/08 07:51:57;;;;;;;1999.90;999.90;;;8.70;99.90;;;;;;5040661;28;20041;-74
2023/11/08 07:54:23;;;;;;;1999.90;999.90;;;8.70;99.90;;;;;;5047399;28;20021;-67
2023/11/08 07:56:49;;;;;;;1999.90;999.90;;;8.70;99.90;;;;;;5040728;28;20021;-68
2023/11/08 07:59:15;;;;;;;1999.90;999.90;;;8.80;99.90;;;;;;5040829;28;20017;-68
2023/11/08 08:01:41;;;;;;;1999.90;999.90;;;8.80;99.90;;;;;;5041957;28;20025;-67
2023/11/08 08:04:06;;;;;;;1999.90;999.90;;;8.90;99.90;;;;;;5041297;28;20692;-67
2023/11/08 08:06:32;;;;;;;1999.90;999.90;;;8.90;99.90;;;;;;5042145;28;20031;-67
2023/11/08 08:08:59;;;;;;;1999.90;999.90;;;9.00;99.90;;;;;;5042303;28;20080;-68
2023/11/08 08:11:25;;;;;;;1999.90;999.90;;;9.00;99.90;;;;;;5044625;28;20680;-68
2023/11/08 08:13:52;;;;;;;1999.90;999.90;;;9.00;99.90;;;;;;5044986;28;20147;-76
2023/11/08 08:16:19;;;;;;;1999.90;999.90;;;9.00;99.90;;;;;;5047762;28;20029;-67
2023/11/08 08:18:48;;;;;;;1999.90;999.90;;;9.00;99.90;;;;;;5042097;28;20333;-67
2023/11/08 08:21:14;;;;;;;1999.90;999.90;;;9.10;99.90;;;;;;5040364;28;20029;-68
2023/11/08 08:23:40;;;;;;;1999.90;999.90;;;9.10;99.90;;;;;;5049583;28;20404;-67
2023/11/08 08:26:07;;;;;;;1999.90;999.90;;;9.10;99.90;;;;;;5044419;28;20302;-68
2023/11/08 08:28:35;;;;;;;1999.90;999.90;;;9.10;99.90;;;;;;5054711;28;20052;-68
2023/11/08 08:31:04;;;;;;;1999.90;999.90;;;9.20;99.90;;;;;;5051530;28;20040;-68
2023/11/08 08:33:30;;;;;;;1999.90;999.90;;;9.20;99.90;;;;;;5039030;28;20040;-68
2023/11/08 08:35:59;;;;;;;1999.90;999.90;;;9.20;99.90;;;;;;5052599;28;20035;-69
2023/11/08 08:38:25;;;;;;;1999.90;999.90;;;9.30;99.90;;;;;;5052622;28;20039;-67
2023/11/08 08:40:51;;;;;;;1999.90;999.90;;;9.40;99.90;;;;;;5052379;28;20020;-67
2023/11/08 08:43:21;;;;;;;1999.90;999.90;;;9.40;99.90;;;;;;5043254;28;20298;-68
2023/11/08 08:45:48;;;;;;;1999.90;999.90;;;9.50;99.90;;;;;;5048249;28;20036;-67
2023/11/08 08:48:15;;;;;;;1999.90;999.90;;;9.50;99.90;;;;;;5048332;28;20029;-67
2023/11/08 08:50:41;;;;;;;1999.90;999.90;;;9.50;99.90;;;;;;5051867;28;20072;-68
2023/11/08 08:53:07;;;;;;;1999.90;999.90;;;9.60;99.90;;;;;;5044850;28;20043;-68
2023/11/08 08:55:35;;;;;;;1999.90;999.90;;;9.60;99.90;;;;;;5041364;28;20067;-77
2023/11/08 08:58:01;;;;;;;1999.90;999.90;;;9.60;99.90;;;;;;5047543;28;20020;-68
2023/11/08 09:00:27;;;;;;;1999.90;999.90;;;9.60;99.90;;;;;;5049018;28;20328;-67
2023/11/08 09:02:53;;;;;;;1999.90;999.90;;;9.70;99.90;;;;;;5049172;28;20328;-67
2023/11/08 09:05:21;;;;;;;1999.90;999.90;;;9.70;99.90;;;;;;5046158;28;20079;-67
2023/11/08 09:07:47;;;;;;;1999.90;999.90;;;9.70;99.90;;;;;;5043561;28;20033;-68
2023/11/08 09:10:14;;;;;;;1999.90;999.90;;;9.80;99.90;;;;;;5038177;28;20209;-68
2023/11/08 09:12:41;;;;;;;1999.90;999.90;;;9.80;99.90;;;;;;5040816;28;20029;-68
2023/11/08 09:15:08;;;;;;;1999.90;999.90;;;9.90;99.90;;;;;;5049242;28;20029;-68
2023/11/08 09:17:34;;;;;;;1999.90;999.90;;;9.90;99.90;;;;;;5042841;28;20741;-67
2023/11/08 09:20:07;;;;;;;1999.90;999.90;;;10.00;99.90;;;;;;5052774;28;20323;-67
2023/11/08 09:22:33;;;;;;;1999.90;999.90;;;10.00;99.90;;;;;;5048212;28;20106;-68
2023/11/08 09:24:59;;;;;;;1999.90;999.90;;;10.00;99.90;;;;;;5036145;28;20072;-68
2023/11/08 09:27:25;;;;;;;1999.90;999.90;;;10.00;99.90;;;;;;5046101;28;20029;-68
2023/11/08 09:29:51;;;;;;;1999.90;999.90;;;10.00;99.90;;;;;;5053612;28;20036;-67
2023/11/08 09:32:17;;;;;;;1999.90;999.90;;;10.00;99.90;;;;;;5049830;28;20035;-67
2023/11/08 09:34:43;;;;;;;1999.90;999.90;;;9.90;99.90;;;;;;5046816;28;20458;-67
2023/11/08 09:37:10;;;;;;;1999.90;999.90;;;9.80;99.90;;;;;;5050197;28;20029;-68
2023/11/08 09:39:37;;;;;;;1999.90;999.90;;;9.80;99.90;;;;;;5043326;28;20059;-67
2023/11/08 09:42:04;;;;;;;1999.90;999.90;;;9.90;99.90;;;;;;5047100;28;20034;-67
2023/11/08 09:44:31;;;;;;;1999.90;999.90;;;9.90;99.90;;;;;;5047200;28;20029;-67
2023/11/08 09:46:58;;;;;;;1999.90;999.90;;;9.90;99.90;;;;;;5049097;28;20158;-75
2023/11/08 09:49:24;;;;;;;1999.90;999.90;;;9.80;99.90;;;;;;5046054;28;20036;-67
2023/11/08 09:51:54;;;;;;;1999.90;999.90;;;9.80;99.90;;;;;;5043390;28;20059;-68
2023/11/08 09:54:20;;;;;;;1999.90;999.90;;;9.80;99.90;;;;;;5045977;28;20032;-67
2023/11/08 09:56:46;;;;;;;1999.90;999.90;;;9.90;99.90;;;;;;5047592;28;20480;-68
2023/11/08 09:59:17;;;;;;;1999.90;999.90;;;9.90;99.90;;;;;;5045237;28;20072;-67
2023/11/08 10:01:47;;;;;;;1999.90;999.90;;;9.90;99.90;;;;;;5047471;28;20421;-70
2023/11/08 10:04:15;;;;;;;1999.90;999.90;;;9.90;99.90;;;;;;5038627;28;20033;-68
2023/11/08 10:06:46;;;;;;;1999.90;999.90;;;9.90;99.90;;;;;;5045356;28;20037;-68
2023/11/08 10:09:13;;;;;;;1999.90;999.90;;;9.90;99.90;;;;;;5041060;28;20025;-68
2023/11/08 10:11:39;;;;;;;;;;;10.00;99.90;;;;;;5042689;28;20112;-67
2023/11/08 10:14:06;;;;;;;;;;;10.00;99.90;;;;;;5042754;28;20315;-68
2023/11/08 10:16:46;;;;;;;1999.90;999.90;;;10.00;99.90;;;;;;5040464;28;20374;-70
2023/11/08 10:19:12;;;;;;;1999.90;999.90;;;10.00;99.90;;;;;;5040260;28;20037;-68
2023/11/08 10:21:38;;;;;;;1999.90;999.90;;;10.00;99.90;;;;;;5044272;28;20115;-68
2023/11/08 10:24:11;;;;;;;1999.90;999.90;;;9.90;99.90;;;;;;5042450;28;20544;-68
2023/11/08 10:26:37;;;;;;;1999.90;999.90;;;9.90;99.90;;;;;;5042675;28;20066;-67
2023/11/08 10:29:05;;;;;;;1999.90;999.90;;;9.90;99.90;;;;;;5049211;28;20024;-68
2023/11/08 10:31:39;;;;;;;1999.90;999.90;;;10.00;99.90;;;;;;5041299;28;20471;-68
2023/11/08 10:34:11;;;;;;;1999.90;999.90;;;10.00;99.90;;;;;;5043862;28;20457;-68
2023/11/08 10:36:38;;;;;;;1999.90;999.90;;;10.10;99.90;;;;;;5040963;28;20501;-68
2023/11/08 10:39:14;;;;;;;1999.90;999.90;;;10.20;99.90;;;;;;5043647;28;20033;-67
2023/11/08 10:41:44;;;;;;;1999.90;999.90;;;10.30;99.90;;;;;;5050137;28;20031;-68
2023/11/08 10:44:12;;;;;;;1999.90;999.90;;;10.40;99.90;;;;;;5043873;28;20082;-68
2023/11/08 10:46:40;;;;;;;1999.90;999.90;;;10.60;99.90;;;;;;5041162;28;20044;-69
2023/11/08 10:49:08;;;;;;;1999.90;999.90;;;10.80;99.90;;;;;;5047674;28;20074;-68
2023/11/08 10:51:37;;;;;;;1999.90;999.90;;;10.90;99.90;;;;;;5041272;28;20053;-68
2023/11/08 10:54:04;;;;;;;1999.90;999.90;;;10.90;99.90;;;;;;5043345;28;20057;-76
2023/11/08 10:56:31;;;;;;;1999.90;999.90;;;11.10;99.90;;;;;;5039684;28;20104;-68
2023/11/08 10:58:59;;;;;;;;;;;11.00;99.90;;;;;;5039388;28;20029;-67
2023/11/08 11:01:30;;;;;;;1999.90;999.90;;;11.00;99.90;;;;;;5046638;28;19913;-68
2023/11/08 11:04:04;;;;;;;1999.90;999.90;;;11.00;99.90;;;;;;5048799;28;20096;-77
2023/11/08 11:06:34;;;;;;;1999.90;999.90;;;11.00;99.90;;;;;;5049424;28;20036;-68
2023/11/08 11:09:12;;;;;;;1999.90;999.90;;;10.90;99.90;;;;;;5049522;28;20296;-76
2023/11/08 11:11:45;;;;;;;1999.90;999.90;;;10.90;99.90;;;;;;5043405;28;20082;-67
2023/11/08 11:14:26;;;;;;;1999.90;999.90;;;10.90;99.90;;;;;;5047678;28;20021;-68
2023/11/08 11:17:10;;;;;;;1999.90;999.90;;;10.90;99.90;;;;;;5042716;28;20118;-68
2023/11/08 11:19:41;;;;;;;1999.90;999.90;;;10.80;99.90;;;;;;5047849;28;20021;-67
2023/11/08 11:22:12;;;;;;;1999.90;999.90;;;10.80;99.90;;;;;;5046091;28;20028;-68
2023/11/08 11:24:45;;;;;;;1999.90;999.90;;;10.80;99.90;;;;;;5050297;28;20629;-68
2023/11/08 11:27:30;;;;;;;1999.90;999.90;;;10.80;99.90;;;;;;5044922;28;20025;-70
2023/11/08 11:30:14;;;;;;;1999.90;999.90;;;10.90;99.90;;;;;;5050478;28;20032;-78
2023/11/08 11:32:46;;;;;;;1999.90;999.90;;;10.90;99.90;;;;;;5051083;28;20311;-67
2023/11/08 11:35:30;;;;;;;1999.90;999.90;;;11.00;99.90;;;;;;5048379;28;20164;-68
2023/11/08 11:38:10;;;;;;;1999.90;999.90;;;11.00;99.90;;;;;;5049751;28;20021;-77
2023/11/08 11:40:45;;;;;;;1999.90;999.90;;;11.00;99.90;;;;;;5043620;28;20025;-67
2023/11/08 11:43:29;;;;;;;1999.90;999.90;;;10.90;99.90;;;;;;5051345;28;20449;-67
2023/11/08 11:45:57;;;;;;;1999.90;999.90;;;10.90;99.90;;;;;;5042759;28;20301;-75
2023/11/08 11:48:28;;;;;;;1999.90;999.90;;;10.90;99.90;;;;;;5049493;28;20036;-68
2023/11/08 11:50:54;;;;;;;1999.90;999.90;;;10.90;99.90;;;;;;5053773;28;20045;-67
2023/11/08 11:53:20;;;;;;;1999.90;999.90;;;10.90;99.90;;;;;;5045930;28;20017;-67
2023/11/08 11:55:46;;;;;;;1999.90;999.90;;;10.90;99.90;;;;;;5049672;28;20489;-67
2023/11/08 11:58:12;;;;;;;1999.90;999.90;;;10.90;99.90;;;;;;5051499;28;20040;-68
2023/11/08 12:00:38;;;;;;;1999.90;999.90;;;10.80;99.90;;;;;;5051239;28;20033;-68
2023/11/08 12:03:04;;;;;;;1999.90;999.90;;;10.90;99.90;;;;;;5052313;28;20090;-67
2023/11/08 12:05:30;;;;;;;1999.90;999.90;;;10.90;99.90;;;;;;5049721;28;20024;-68
2023/11/08 12:07:56;;;;;;;1999.90;999.90;;;10.90;99.90;;;;;;5051027;28;20355;-77
2023/11/08 12:10:29;;;;;;;1999.90;999.90;;;10.90;99.90;;;;;;5053581;28;20532;-67